sensor_id;sensor_type;location;lat;lon;timestamp;temperature;humidity
3380;DHT22;1703;51.964;7.642;2023-04-24T00:01:02;12.90;99.90
3380;DHT22;1703;51.964;7.642;2023-04-24T00:03:29;12.90;99.90
3380;DHT22;1703;51.964;7.642;2023-04-24T00:05:55;12.90;99.90
3380;DHT22;1703;51.964;7.642;2023-04-24T00:08:22;12.90;99.90
3380;DHT22;1703;51.964;7.642;2023-04-24T00:10:49;12.90;99.90
3380;DHT22;1703;51.964;7.642;2023-04-24T00:13:17;12.90;99.90
3380;DHT22;1703;51.964;7.642;2023-04-24T00:15:44;12.80;99.90
3380;DHT22;1703;51.964;7.642;2023-04-24T00:18:12;12.80;99.90
3380;DHT22;1703;51.964;7.642;2023-04-24T00:20:39;12.80;99.90
3380;DHT22;1703;51.964;7.642;2023-04-24T00:23:06;12.80;99.90
3380;DHT22;1703;51.964;7.642;2023-04-24T00:25:33;12.90;99.90
3380;DHT22;1703;51.964;7.642;2023-04-24T00:28:00;12.90;99.90
3380;DHT22;1703;51.964;7.642;2023-04-24T00:30:26;12.90;99.90
3380;DHT22;1703;51.964;7.642;2023-04-24T00:32:53;12.90;99.90
3380;DHT22;1703;51.964;7.642;2023-04-24T00:35:22;12.90;99.90
3380;DHT22;1703;51.964;7.642;2023-04-24T00:37:49;12.90;99.90
3380;DHT22;1703;51.964;7.642;2023-04-24T00:40:17;12.80;99.90
3380;DHT22;1703;51.964;7.642;2023-04-24T00:42:44;12.90;99.90
3380;DHT22;1703;51.964;7.642;2023-04-24T00:45:11;12.80;99.90
3380;DHT22;1703;51.964;7.642;2023-04-24T00:47:38;12.90;99.90
3380;DHT22;1703;51.964;7.642;2023-04-24T00:50:07;12.90;99.90
3380;DHT22;1703;51.964;7.642;2023-04-24T00:52:35;12.90;99.90
3380;DHT22;1703;51.964;7.642;2023-04-24T00:55:03;12.80;99.90
3380;DHT22;1703;51.964;7.642;2023-04-24T00:57:30;12.70;99.90
3380;DHT22;1703;51.964;7.642;2023-04-24T00:59:57;12.70;99.90
3380;DHT22;1703;51.964;7.642;2023-04-24T01:02:24;12.70;99.90
3380;DHT22;1703;51.964;7.642;2023-04-24T01:04:52;12.80;99.90
3380;DHT22;1703;51.964;7.642;2023-04-24T01:07:20;12.80;99.90
3380;DHT22;1703;51.964;7.642;2023-04-24T01:09:48;12.80;99.90
3380;DHT22;1703;51.964;7.642;2023-04-24T01:12:17;12.80;99.90
3380;DHT22;1703;51.964;7.642;2023-04-24T01:14:45;12.70;99.90
3380;DHT22;1703;51.964;7.642;2023-04-24T01:17:12;12.70;99.90
3380;DHT22;1703;51.964;7.642;2023-04-24T01:19:38;12.70;99.90
3380;DHT22;1703;51.964;7.642;2023-04-24T01:22:12;12.70;99.90
3380;DHT22;1703;51.964;7.642;2023-04-24T01:24:40;12.60;99.90
3380;DHT22;1703;51.964;7.642;2023-04-24T01:27:08;12.60;99.90
3380;DHT22;1703;51.964;7.642;2023-04-24T01:29:35;12.60;99.90
3380;DHT22;1703;51.964;7.642;2023-04-24T01:32:02;12.70;99.90
3380;DHT22;1703;51.964;7.642;2023-04-24T01:34:30;12.70;99.90
3380;DHT22;1703;51.964;7.642;2023-04-24T01:36:58;12.70;99.90
3380;DHT22;1703;51.964;7.642;2023-04-24T01:39:26;12.70;99.90
3380;DHT22;1703;51.964;7.642;2023-04-24T01:41:54;12.80;99.90
3380;DHT22;1703;51.964;7.642;2023-04-24T01:44:21;12.80;99.90
3380;DHT22;1703;51.964;7.642;2023-04-24T01:46:48;12.80;99.90
3380;DHT22;1703;51.964;7.642;2023-04-24T01:49:15;12.90;99.90
3380;DHT22;1703;51.964;7.642;2023-04-24T01:51:44;12.80;99.90
3380;DHT22;1703;51.964;7.642;2023-04-24T01:54:11;12.80;99.90
3380;DHT22;1703;51.964;7.642;2023-04-24T01:56:41;12.80;99.90
3380;DHT22;1703;51.964;7.642;2023-04-24T01:59:09;12.80;99.90
3380;DHT22;1703;51.964;7.642;2023-04-24T02:01:37;12.80;99.90
3380;DHT22;1703;51.964;7.642;2023-04-24T02:04:04;12.80;99.90
3380;DHT22;1703;51.964;7.642;2023-04-24T02:06:31;12.80;99.90
3380;DHT22;1703;51.964;7.642;2023-04-24T02:09:00;12.80;99.90
3380;DHT22;1703;51.964;7.642;2023-04-24T02:11:28;12.90;99.90
3380;DHT22;1703;51.964;7.642;2023-04-24T02:13:56;12.90;99.90
3380;DHT22;1703;51.964;7.642;2023-04-24T02:16:23;12.80;99.90
3380;DHT22;1703;51.964;7.642;2023-04-24T02:18:50;12.70;99.90
3380;DHT22;1703;51.964;7.642;2023-04-24T02:21:17;12.70;99.90
3380;DHT22;1703;51.964;7.642;2023-04-24T02:23:44;12.70;99.90
3380;DHT22;1703;51.964;7.642;2023-04-24T02:26:12;12.60;99.90
3380;DHT22;1703;51.964;7.642;2023-04-24T02:28:39;12.60;99.90
3380;DHT22;1703;51.964;7.642;2023-04-24T02:31:07;12.70;99.90
3380;DHT22;1703;51.964;7.642;2023-04-24T02:33:34;12.70;99.90
3380;DHT22;1703;51.964;7.642;2023-04-24T02:36:01;12.60;99.90
3380;DHT22;1703;51.964;7.642;2023-04-24T02:38:28;12.70;99.90
3380;DHT22;1703;51.964;7.642;2023-04-24T02:40:55;12.70;99.90
3380;DHT22;1703;51.964;7.642;2023-04-24T02:43:22;12.70;99.90
3380;DHT22;1703;51.964;7.642;2023-04-24T02:45:49;12.70;99.90
3380;DHT22;1703;51.964;7.642;2023-04-24T02:48:17;12.60;99.90
3380;DHT22;1703;51.964;7.642;2023-04-24T02:50:46;12.60;99.90
3380;DHT22;1703;51.964;7.642;2023-04-24T02:53:13;12.60;99.90
3380;DHT22;1703;51.964;7.642;2023-04-24T02:55:40;12.60;99.90
3380;DHT22;1703;51.964;7.642;2023-04-24T02:58:07;12.50;99.90
3380;DHT22;1703;51.964;7.642;2023-04-24T03:00:34;12.50;99.90
3380;DHT22;1703;51.964;7.642;2023-04-24T03:03:00;12.50;99.90
3380;DHT22;1703;51.964;7.642;2023-04-24T03:05:29;12.50;99.90
3380;DHT22;1703;51.964;7.642;2023-04-24T03:07:57;12.50;99.90
3380;DHT22;1703;51.964;7.642;2023-04-24T03:10:24;12.40;99.90
3380;DHT22;1703;51.964;7.642;2023-04-24T03:12:51;12.40;99.90
3380;DHT22;1703;51.964;7.642;2023-04-24T03:15:18;12.30;99.90
3380;DHT22;1703;51.964;7.642;2023-04-24T03:17:45;12.30;99.90
3380;DHT22;1703;51.964;7.642;2023-04-24T03:20:12;12.30;99.90
3380;DHT22;1703;51.964;7.642;2023-04-24T03:22:40;12.30;99.90
3380;DHT22;1703;51.964;7.642;2023-04-24T03:25:08;12.30;99.90
3380;DHT22;1703;51.964;7.642;2023-04-24T03:27:35;12.20;99.90
3380;DHT22;1703;51.964;7.642;2023-04-24T03:30:13;12.20;99.90
3380;DHT22;1703;51.964;7.642;2023-04-24T03:32:48;12.10;99.90
3380;DHT22;1703;51.964;7.642;2023-04-24T03:35:21;12.10;99.90
3380;DHT22;1703;51.964;7.642;2023-04-24T03:37:50;12.10;99.90
3380;DHT22;1703;51.964;7.642;2023-04-24T03:40:39;12.00;99.90
3380;DHT22;1703;51.964;7.642;2023-04-24T03:43:19;12.00;99.90
3380;DHT22;1703;51.964;7.642;2023-04-24T03:45:46;12.00;99.90
3380;DHT22;1703;51.964;7.642;2023-04-24T03:48:14;12.10;99.90
3380;DHT22;1703;51.964;7.642;2023-04-24T03:50:40;12.00;99.90
3380;DHT22;1703;51.964;7.642;2023-04-24T03:53:11;12.00;99.90
3380;DHT22;1703;51.964;7.642;2023-04-24T03:55:40;12.00;99.90
3380;DHT22;1703;51.964;7.642;2023-04-24T03:58:08;11.90;99.90
3380;DHT22;1703;51.964;7.642;2023-04-24T04:00:35;11.90;99.90
3380;DHT22;1703;51.964;7.642;2023-04-24T04:03:25;11.80;99.90
3380;DHT22;1703;51.964;7.642;2023-04-24T04:05:52;11.70;99.90
3380;DHT22;1703;51.964;7.642;2023-04-24T04:08:21;11.80;99.90
3380;DHT22;1703;51.964;7.642;2023-04-24T04:10:48;11.70;99.90
3380;DHT22;1703;51.964;7.642;2023-04-24T04:13:15;11.70;99.90
3380;DHT22;1703;51.964;7.642;2023-04-24T04:15:41;11.70;99.90
3380;DHT22;1703;51.964;7.642;2023-04-24T04:18:08;11.70;99.90
3380;DHT22;1703;51.964;7.642;2023-04-24T04:20:35;11.80;99.90
3380;DHT22;1703;51.964;7.642;2023-04-24T04:23:02;11.80;99.90
3380;DHT22;1703;51.964;7.642;2023-04-24T04:25:41;11.80;99.90
3380;DHT22;1703;51.964;7.642;2023-04-24T04:28:08;11.70;99.90
3380;DHT22;1703;51.964;7.642;2023-04-24T04:30:35;11.70;99.90
3380;DHT22;1703;51.964;7.642;2023-04-24T04:33:04;11.80;99.90
3380;DHT22;1703;51.964;7.642;2023-04-24T04:35:31;11.80;99.90
3380;DHT22;1703;51.964;7.642;2023-04-24T04:37:58;11.80;99.90
3380;DHT22;1703;51.964;7.642;2023-04-24T04:40:46;11.70;99.90
3380;DHT22;1703;51.964;7.642;2023-04-24T04:43:15;11.70;99.90
3380;DHT22;1703;51.964;7.642;2023-04-24T04:45:48;11.70;99.90
3380;DHT22;1703;51.964;7.642;2023-04-24T04:48:27;11.80;99.90
3380;DHT22;1703;51.964;7.642;2023-04-24T04:50:58;11.80;99.90
3380;DHT22;1703;51.964;7.642;2023-04-24T04:53:26;11.80;99.90
3380;DHT22;1703;51.964;7.642;2023-04-24T04:55:54;11.80;99.90
3380;DHT22;1703;51.964;7.642;2023-04-24T04:58:26;11.70;99.90
3380;DHT22;1703;51.964;7.642;2023-04-24T05:00:57;11.70;99.90
3380;DHT22;1703;51.964;7.642;2023-04-24T05:03:35;11.60;99.90
3380;DHT22;1703;51.964;7.642;2023-04-24T05:06:06;11.70;99.90
3380;DHT22;1703;51.964;7.642;2023-04-24T05:08:36;11.70;99.90
3380;DHT22;1703;51.964;7.642;2023-04-24T05:11:07;11.70;99.90
3380;DHT22;1703;51.964;7.642;2023-04-24T05:13:34;11.60;99.90
3380;DHT22;1703;51.964;7.642;2023-04-24T05:16:03;11.70;99.90
3380;DHT22;1703;51.964;7.642;2023-04-24T05:18:30;11.60;99.90
3380;DHT22;1703;51.964;7.642;2023-04-24T05:20:58;11.60;99.90
3380;DHT22;1703;51.964;7.642;2023-04-24T05:23:25;11.70;99.90
3380;DHT22;1703;51.964;7.642;2023-04-24T05:25:54;11.70;99.90
3380;DHT22;1703;51.964;7.642;2023-04-24T05:28:22;11.70;99.90
3380;DHT22;1703;51.964;7.642;2023-04-24T05:31:02;11.70;99.90
3380;DHT22;1703;51.964;7.642;2023-04-24T05:33:30;11.70;99.90
3380;DHT22;1703;51.964;7.642;2023-04-24T05:35:57;11.70;99.90
3380;DHT22;1703;51.964;7.642;2023-04-24T05:38:24;11.60;99.90
3380;DHT22;1703;51.964;7.642;2023-04-24T05:40:51;11.60;99.90
3380;DHT22;1703;51.964;7.642;2023-04-24T05:43:17;11.60;99.90
3380;DHT22;1703;51.964;7.642;2023-04-24T05:45:45;11.50;99.90
3380;DHT22;1703;51.964;7.642;2023-04-24T05:48:12;11.50;99.90
3380;DHT22;1703;51.964;7.642;2023-04-24T05:50:39;11.70;99.90
3380;DHT22;1703;51.964;7.642;2023-04-24T05:53:06;11.70;99.90
3380;DHT22;1703;51.964;7.642;2023-04-24T05:55:35;11.70;99.90
3380;DHT22;1703;51.964;7.642;2023-04-24T05:58:02;11.60;99.90
3380;DHT22;1703;51.964;7.642;2023-04-24T06:00:29;11.70;99.90
3380;DHT22;1703;51.964;7.642;2023-04-24T06:03:06;11.70;99.90
3380;DHT22;1703;51.964;7.642;2023-04-24T06:05:33;11.60;99.90
3380;DHT22;1703;51.964;7.642;2023-04-24T06:08:02;11.70;99.90
3380;DHT22;1703;51.964;7.642;2023-04-24T06:10:33;11.70;99.90
3380;DHT22;1703;51.964;7.642;2023-04-24T06:13:00;11.70;99.90
3380;DHT22;1703;51.964;7.642;2023-04-24T06:15:29;11.70;99.90
3380;DHT22;1703;51.964;7.642;2023-04-24T06:18:00;11.80;99.90
3380;DHT22;1703;51.964;7.642;2023-04-24T06:20:28;11.80;99.90
3380;DHT22;1703;51.964;7.642;2023-04-24T06:22:56;11.80;99.90
3380;DHT22;1703;51.964;7.642;2023-04-24T06:25:24;11.90;99.90
3380;DHT22;1703;51.964;7.642;2023-04-24T06:27:51;11.90;99.90
3380;DHT22;1703;51.964;7.642;2023-04-24T06:30:18;11.90;99.90
3380;DHT22;1703;51.964;7.642;2023-04-24T06:32:45;11.90;99.90
3380;DHT22;1703;51.964;7.642;2023-04-24T06:35:12;11.90;99.90
3380;DHT22;1703;51.964;7.642;2023-04-24T06:37:41;11.90;99.90
3380;DHT22;1703;51.964;7.642;2023-04-24T06:40:09;11.80;99.90
3380;DHT22;1703;51.964;7.642;2023-04-24T06:42:36;11.70;99.90
3380;DHT22;1703;51.964;7.642;2023-04-24T06:45:04;11.80;99.90
3380;DHT22;1703;51.964;7.642;2023-04-24T06:47:31;11.80;99.90
3380;DHT22;1703;51.964;7.642;2023-04-24T06:49:58;11.70;99.90
3380;DHT22;1703;51.964;7.642;2023-04-24T06:52:24;11.70;99.90
3380;DHT22;1703;51.964;7.642;2023-04-24T06:54:52;11.80;99.90
3380;DHT22;1703;51.964;7.642;2023-04-24T06:57:26;11.80;99.90
3380;DHT22;1703;51.964;7.642;2023-04-24T06:59:52;11.70;99.90
3380;DHT22;1703;51.964;7.642;2023-04-24T07:02:19;11.50;99.90
3380;DHT22;1703;51.964;7.642;2023-04-24T07:04:46;11.50;99.90
3380;DHT22;1703;51.964;7.642;2023-04-24T07:07:13;11.50;99.90
3380;DHT22;1703;51.964;7.642;2023-04-24T07:09:40;11.40;99.90
3380;DHT22;1703;51.964;7.642;2023-04-24T07:12:09;11.30;99.90
3380;DHT22;1703;51.964;7.642;2023-04-24T07:14:36;11.40;99.90
3380;DHT22;1703;51.964;7.642;2023-04-24T07:17:04;11.50;99.90
3380;DHT22;1703;51.964;7.642;2023-04-24T07:19:32;11.40;99.90
3380;DHT22;1703;51.964;7.642;2023-04-24T07:21:59;11.30;99.90
3380;DHT22;1703;51.964;7.642;2023-04-24T07:24:26;11.30;99.90
3380;DHT22;1703;51.964;7.642;2023-04-24T07:26:54;11.30;99.90
3380;DHT22;1703;51.964;7.642;2023-04-24T07:29:22;11.40;99.90
3380;DHT22;1703;51.964;7.642;2023-04-24T07:31:49;11.40;99.90
3380;DHT22;1703;51.964;7.642;2023-04-24T07:34:16;11.40;99.90
3380;DHT22;1703;51.964;7.642;2023-04-24T07:36:42;11.60;99.90
3380;DHT22;1703;51.964;7.642;2023-04-24T07:39:09;11.60;99.90
3380;DHT22;1703;51.964;7.642;2023-04-24T07:41:36;11.60;99.90
3380;DHT22;1703;51.964;7.642;2023-04-24T07:44:03;11.70;99.90
3380;DHT22;1703;51.964;7.642;2023-04-24T07:46:31;11.60;99.90
3380;DHT22;1703;51.964;7.642;2023-04-24T07:48:58;11.50;99.90
3380;DHT22;1703;51.964;7.642;2023-04-24T07:51:26;11.50;99.90
3380;DHT22;1703;51.964;7.642;2023-04-24T07:53:54;11.50;99.90
3380;DHT22;1703;51.964;7.642;2023-04-24T07:56:21;11.60;99.90
3380;DHT22;1703;51.964;7.642;2023-04-24T07:58:48;11.60;99.90
3380;DHT22;1703;51.964;7.642;2023-04-24T08:01:14;11.70;99.90
3380;DHT22;1703;51.964;7.642;2023-04-24T08:03:42;11.60;99.90
3380;DHT22;1703;51.964;7.642;2023-04-24T08:06:09;11.50;99.90
3380;DHT22;1703;51.964;7.642;2023-04-24T08:08:36;11.50;99.90
3380;DHT22;1703;51.964;7.642;2023-04-24T08:11:03;11.60;99.90
3380;DHT22;1703;51.964;7.642;2023-04-24T08:13:30;11.60;99.90
3380;DHT22;1703;51.964;7.642;2023-04-24T08:15:56;11.60;99.90
3380;DHT22;1703;51.964;7.642;2023-04-24T08:18:23;11.60;99.90
3380;DHT22;1703;51.964;7.642;2023-04-24T08:20:51;11.60;99.90
3380;DHT22;1703;51.964;7.642;2023-04-24T08:23:18;11.50;99.90
3380;DHT22;1703;51.964;7.642;2023-04-24T08:25:45;11.50;99.90
3380;DHT22;1703;51.964;7.642;2023-04-24T08:28:11;11.40;99.90
3380;DHT22;1703;51.964;7.642;2023-04-24T08:30:45;11.40;99.90
3380;DHT22;1703;51.964;7.642;2023-04-24T08:33:12;11.50;99.90
3380;DHT22;1703;51.964;7.642;2023-04-24T08:35:39;11.50;99.90
3380;DHT22;1703;51.964;7.642;2023-04-24T08:38:07;11.50;99.90
3380;DHT22;1703;51.964;7.642;2023-04-24T08:40:34;11.60;99.90
3380;DHT22;1703;51.964;7.642;2023-04-24T08:43:03;11.50;99.90
3380;DHT22;1703;51.964;7.642;2023-04-24T08:45:30;11.60;99.90
3380;DHT22;1703;51.964;7.642;2023-04-24T08:47:59;11.60;99.90
3380;DHT22;1703;51.964;7.642;2023-04-24T08:50:27;11.60;99.90
3380;DHT22;1703;51.964;7.642;2023-04-24T08:52:55;11.60;99.90
3380;DHT22;1703;51.964;7.642;2023-04-24T08:55:24;11.60;99.90
3380;DHT22;1703;51.964;7.642;2023-04-24T08:57:52;11.50;99.90
3380;DHT22;1703;51.964;7.642;2023-04-24T09:00:20;11.50;99.90
3380;DHT22;1703;51.964;7.642;2023-04-24T09:02:49;11.50;99.90
3380;DHT22;1703;51.964;7.642;2023-04-24T09:05:16;11.50;99.90
3380;DHT22;1703;51.964;7.642;2023-04-24T09:07:46;11.50;99.90
3380;DHT22;1703;51.964;7.642;2023-04-24T09:10:15;11.40;99.90
3380;DHT22;1703;51.964;7.642;2023-04-24T09:12:44;11.40;99.90
3380;DHT22;1703;51.964;7.642;2023-04-24T09:15:11;11.60;99.90
3380;DHT22;1703;51.964;7.642;2023-04-24T09:17:38;11.60;99.90
3380;DHT22;1703;51.964;7.642;2023-04-24T09:20:06;11.60;99.90
3380;DHT22;1703;51.964;7.642;2023-04-24T09:22:33;11.50;99.90
3380;DHT22;1703;51.964;7.642;2023-04-24T09:25:02;11.20;99.90
3380;DHT22;1703;51.964;7.642;2023-04-24T09:27:31;11.10;99.90
3380;DHT22;1703;51.964;7.642;2023-04-24T09:30:00;11.10;99.90
3380;DHT22;1703;51.964;7.642;2023-04-24T09:32:27;11.00;99.90
3380;DHT22;1703;51.964;7.642;2023-04-24T09:35:10;10.90;99.90
3380;DHT22;1703;51.964;7.642;2023-04-24T09:37:38;10.80;99.90
3380;DHT22;1703;51.964;7.642;2023-04-24T09:40:13;10.70;99.90
3380;DHT22;1703;51.964;7.642;2023-04-24T09:42:42;10.80;99.90
3380;DHT22;1703;51.964;7.642;2023-04-24T09:45:11;10.60;99.90
3380;DHT22;1703;51.964;7.642;2023-04-24T09:47:38;10.50;99.90
3380;DHT22;1703;51.964;7.642;2023-04-24T09:50:15;10.50;99.90
3380;DHT22;1703;51.964;7.642;2023-04-24T09:52:44;10.30;99.90
3380;DHT22;1703;51.964;7.642;2023-04-24T09:55:12;10.30;99.90
3380;DHT22;1703;51.964;7.642;2023-04-24T09:57:47;10.30;99.90
3380;DHT22;1703;51.964;7.642;2023-04-24T10:00:21;10.30;99.90
3380;DHT22;1703;51.964;7.642;2023-04-24T10:02:54;10.30;99.90
3380;DHT22;1703;51.964;7.642;2023-04-24T10:05:27;10.30;99.90
3380;DHT22;1703;51.964;7.642;2023-04-24T10:07:57;10.30;99.90
3380;DHT22;1703;51.964;7.642;2023-04-24T10:10:23;10.30;99.90
3380;DHT22;1703;51.964;7.642;2023-04-24T10:12:51;10.30;99.90
3380;DHT22;1703;51.964;7.642;2023-04-24T10:15:20;10.40;99.90
3380;DHT22;1703;51.964;7.642;2023-04-24T10:17:48;10.40;99.90
3380;DHT22;1703;51.964;7.642;2023-04-24T10:20:19;10.40;99.90
3380;DHT22;1703;51.964;7.642;2023-04-24T10:22:48;10.40;99.90
3380;DHT22;1703;51.964;7.642;2023-04-24T10:25:18;10.40;99.90
3380;DHT22;1703;51.964;7.642;2023-04-24T10:27:46;10.40;99.90
3380;DHT22;1703;51.964;7.642;2023-04-24T10:30:13;10.30;99.90
3380;DHT22;1703;51.964;7.642;2023-04-24T10:32:41;10.30;99.90
3380;DHT22;1703;51.964;7.642;2023-04-24T10:35:09;10.40;99.90
3380;DHT22;1703;51.964;7.642;2023-04-24T10:37:39;10.40;99.90
3380;DHT22;1703;51.964;7.642;2023-04-24T10:40:08;10.30;99.90
3380;DHT22;1703;51.964;7.642;2023-04-24T10:42:35;10.30;99.90
3380;DHT22;1703;51.964;7.642;2023-04-24T10:45:06;10.20;99.90
3380;DHT22;1703;51.964;7.642;2023-04-24T10:47:39;10.10;99.90
3380;DHT22;1703;51.964;7.642;2023-04-24T10:50:09;10.00;99.90
3380;DHT22;1703;51.964;7.642;2023-04-24T10:52:46;9.90;99.90
3380;DHT22;1703;51.964;7.642;2023-04-24T10:55:13;9.90;99.90
3380;DHT22;1703;51.964;7.642;2023-04-24T10:58:01;9.90;99.90
3380;DHT22;1703;51.964;7.642;2023-04-24T11:00:29;9.90;99.90
3380;DHT22;1703;51.964;7.642;2023-04-24T11:02:56;9.90;99.90
3380;DHT22;1703;51.964;7.642;2023-04-24T11:05:49;9.90;99.90
3380;DHT22;1703;51.964;7.642;2023-04-24T11:08:22;9.90;99.90
3380;DHT22;1703;51.964;7.642;2023-04-24T11:10:56;9.90;99.90
3380;DHT22;1703;51.964;7.642;2023-04-24T11:13:23;9.90;99.90
3380;DHT22;1703;51.964;7.642;2023-04-24T11:16:13;9.80;99.90
3380;DHT22;1703;51.964;7.642;2023-04-24T11:18:42;9.80;99.90
3380;DHT22;1703;51.964;7.642;2023-04-24T11:21:13;9.90;99.90
3380;DHT22;1703;51.964;7.642;2023-04-24T11:23:40;9.90;99.90
3380;DHT22;1703;51.964;7.642;2023-04-24T11:26:10;9.80;99.90
3380;DHT22;1703;51.964;7.642;2023-04-24T11:28:44;9.80;99.90
3380;DHT22;1703;51.964;7.642;2023-04-24T11:31:34;9.90;99.90
3380;DHT22;1703;51.964;7.642;2023-04-24T11:34:07;9.90;99.90
3380;DHT22;1703;51.964;7.642;2023-04-24T11:36:35;10.00;99.90
3380;DHT22;1703;51.964;7.642;2023-04-24T11:39:02;10.10;99.90
3380;DHT22;1703;51.964;7.642;2023-04-24T11:41:29;10.10;99.90
3380;DHT22;1703;51.964;7.642;2023-04-24T11:43:56;10.00;99.90
3380;DHT22;1703;51.964;7.642;2023-04-24T11:46:26;10.00;99.90
3380;DHT22;1703;51.964;7.642;2023-04-24T11:48:53;9.90;99.90
3380;DHT22;1703;51.964;7.642;2023-04-24T11:51:20;10.10;99.90
3380;DHT22;1703;51.964;7.642;2023-04-24T11:53:48;10.00;99.90
3380;DHT22;1703;51.964;7.642;2023-04-24T11:56:17;9.90;99.90
3380;DHT22;1703;51.964;7.642;2023-04-24T11:58:44;9.80;99.90
3380;DHT22;1703;51.964;7.642;2023-04-24T12:01:11;9.80;99.90
3380;DHT22;1703;51.964;7.642;2023-04-24T12:03:38;9.70;99.90
3380;DHT22;1703;51.964;7.642;2023-04-24T12:06:05;9.60;99.90
3380;DHT22;1703;51.964;7.642;2023-04-24T12:08:33;9.60;99.90
3380;DHT22;1703;51.964;7.642;2023-04-24T12:11:02;9.50;99.90
3380;DHT22;1703;51.964;7.642;2023-04-24T12:13:29;9.50;99.90
3380;DHT22;1703;51.964;7.642;2023-04-24T12:15:56;9.50;99.90
3380;DHT22;1703;51.964;7.642;2023-04-24T12:18:24;9.60;99.90
3380;DHT22;1703;51.964;7.642;2023-04-24T12:20:50;9.60;99.90
3380;DHT22;1703;51.964;7.642;2023-04-24T12:23:33;9.60;99.90
3380;DHT22;1703;51.964;7.642;2023-04-24T12:26:03;9.60;99.90
3380;DHT22;1703;51.964;7.642;2023-04-24T12:28:35;9.60;99.90
3380;DHT22;1703;51.964;7.642;2023-04-24T12:31:02;9.60;99.90
3380;DHT22;1703;51.964;7.642;2023-04-24T12:33:33;9.60;99.90
3380;DHT22;1703;51.964;7.642;2023-04-24T12:36:00;9.60;99.90
3380;DHT22;1703;51.964;7.642;2023-04-24T12:38:29;9.60;99.90
3380;DHT22;1703;51.964;7.642;2023-04-24T12:41:05;9.70;99.90
3380;DHT22;1703;51.964;7.642;2023-04-24T12:43:32;9.70;99.90
3380;DHT22;1703;51.964;7.642;2023-04-24T12:45:59;9.70;99.90
3380;DHT22;1703;51.964;7.642;2023-04-24T12:48:26;9.90;99.90
3380;DHT22;1703;51.964;7.642;2023-04-24T12:50:52;10.00;99.90
3380;DHT22;1703;51.964;7.642;2023-04-24T12:53:20;10.00;99.90
3380;DHT22;1703;51.964;7.642;2023-04-24T12:55:47;10.10;99.90
3380;DHT22;1703;51.964;7.642;2023-04-24T12:58:20;10.10;99.90
3380;DHT22;1703;51.964;7.642;2023-04-24T13:00:48;10.10;99.90
3380;DHT22;1703;51.964;7.642;2023-04-24T13:03:15;10.00;99.90
3380;DHT22;1703;51.964;7.642;2023-04-24T13:05:43;10.00;99.90
3380;DHT22;1703;51.964;7.642;2023-04-24T13:08:09;10.00;99.90
3380;DHT22;1703;51.964;7.642;2023-04-24T13:10:38;10.00;99.90
3380;DHT22;1703;51.964;7.642;2023-04-24T13:13:06;10.00;99.90
3380;DHT22;1703;51.964;7.642;2023-04-24T13:15:34;9.90;99.90
3380;DHT22;1703;51.964;7.642;2023-04-24T13:18:04;9.90;99.90
3380;DHT22;1703;51.964;7.642;2023-04-24T13:20:31;9.90;99.90
3380;DHT22;1703;51.964;7.642;2023-04-24T13:22:58;9.90;99.90
3380;DHT22;1703;51.964;7.642;2023-04-24T13:25:25;10.00;99.90
3380;DHT22;1703;51.964;7.642;2023-04-24T13:27:52;10.10;99.90
3380;DHT22;1703;51.964;7.642;2023-04-24T13:30:19;10.10;99.90
3380;DHT22;1703;51.964;7.642;2023-04-24T13:32:47;10.10;99.90
3380;DHT22;1703;51.964;7.642;2023-04-24T13:35:14;10.20;99.90
3380;DHT22;1703;51.964;7.642;2023-04-24T13:37:41;10.30;99.90
3380;DHT22;1703;51.964;7.642;2023-04-24T13:40:11;10.40;99.90
3380;DHT22;1703;51.964;7.642;2023-04-24T13:42:38;10.50;99.90
3380;DHT22;1703;51.964;7.642;2023-04-24T13:45:05;10.50;99.90
3380;DHT22;1703;51.964;7.642;2023-04-24T13:47:32;10.40;99.90
3380;DHT22;1703;51.964;7.642;2023-04-24T13:50:00;10.40;99.90
3380;DHT22;1703;51.964;7.642;2023-04-24T13:52:27;10.20;99.90
3380;DHT22;1703;51.964;7.642;2023-04-24T13:54:54;10.20;99.90
3380;DHT22;1703;51.964;7.642;2023-04-24T13:57:21;10.20;99.90
3380;DHT22;1703;51.964;7.642;2023-04-24T13:59:48;10.10;99.90
3380;DHT22;1703;51.964;7.642;2023-04-24T14:02:14;10.00;99.90
3380;DHT22;1703;51.964;7.642;2023-04-24T14:04:41;10.00;99.90
3380;DHT22;1703;51.964;7.642;2023-04-24T14:07:09;10.00;99.90
3380;DHT22;1703;51.964;7.642;2023-04-24T14:09:36;10.00;99.90
3380;DHT22;1703;51.964;7.642;2023-04-24T14:12:03;10.20;99.90
3380;DHT22;1703;51.964;7.642;2023-04-24T14:14:31;10.30;99.90
3380;DHT22;1703;51.964;7.642;2023-04-24T14:16:58;10.40;99.90
3380;DHT22;1703;51.964;7.642;2023-04-24T14:19:24;10.40;99.90
3380;DHT22;1703;51.964;7.642;2023-04-24T14:21:51;10.40;99.90
3380;DHT22;1703;51.964;7.642;2023-04-24T14:24:20;10.30;99.90
3380;DHT22;1703;51.964;7.642;2023-04-24T14:26:47;10.20;99.90
3380;DHT22;1703;51.964;7.642;2023-04-24T14:29:14;10.20;99.90
3380;DHT22;1703;51.964;7.642;2023-04-24T14:31:41;10.10;99.90
3380;DHT22;1703;51.964;7.642;2023-04-24T14:34:09;10.10;99.90
3380;DHT22;1703;51.964;7.642;2023-04-24T14:36:35;10.00;99.90
3380;DHT22;1703;51.964;7.642;2023-04-24T14:39:03;10.10;99.90
3380;DHT22;1703;51.964;7.642;2023-04-24T14:41:33;10.10;99.90
3380;DHT22;1703;51.964;7.642;2023-04-24T14:44:01;10.20;99.90
3380;DHT22;1703;51.964;7.642;2023-04-24T14:46:28;10.30;99.90
3380;DHT22;1703;51.964;7.642;2023-04-24T14:48:55;10.30;99.90
3380;DHT22;1703;51.964;7.642;2023-04-24T14:51:23;10.30;99.90
3380;DHT22;1703;51.964;7.642;2023-04-24T14:53:50;10.40;99.90
3380;DHT22;1703;51.964;7.642;2023-04-24T14:56:17;10.50;99.90
3380;DHT22;1703;51.964;7.642;2023-04-24T14:58:45;10.60;99.90
3380;DHT22;1703;51.964;7.642;2023-04-24T15:01:12;10.50;99.90
3380;DHT22;1703;51.964;7.642;2023-04-24T15:03:39;10.50;99.90
3380;DHT22;1703;51.964;7.642;2023-04-24T15:06:06;10.60;99.90
3380;DHT22;1703;51.964;7.642;2023-04-24T15:08:33;10.40;99.90
3380;DHT22;1703;51.964;7.642;2023-04-24T15:11:00;10.40;99.90
3380;DHT22;1703;51.964;7.642;2023-04-24T15:13:27;10.30;99.90
3380;DHT22;1703;51.964;7.642;2023-04-24T15:15:55;10.30;99.90
3380;DHT22;1703;51.964;7.642;2023-04-24T15:18:22;10.30;99.90
3380;DHT22;1703;51.964;7.642;2023-04-24T15:20:48;10.40;99.90
3380;DHT22;1703;51.964;7.642;2023-04-24T15:23:15;10.40;99.90
3380;DHT22;1703;51.964;7.642;2023-04-24T15:25:45;10.40;99.90
3380;DHT22;1703;51.964;7.642;2023-04-24T15:28:14;10.30;99.90
3380;DHT22;1703;51.964;7.642;2023-04-24T15:30:41;10.40;99.90
3380;DHT22;1703;51.964;7.642;2023-04-24T15:33:12;10.30;99.90
3380;DHT22;1703;51.964;7.642;2023-04-24T15:35:40;10.40;99.90
3380;DHT22;1703;51.964;7.642;2023-04-24T15:38:09;10.40;99.90
3380;DHT22;1703;51.964;7.642;2023-04-24T15:40:36;10.40;99.90
3380;DHT22;1703;51.964;7.642;2023-04-24T15:43:03;10.40;99.90
3380;DHT22;1703;51.964;7.642;2023-04-24T15:45:30;10.40;99.90
3380;DHT22;1703;51.964;7.642;2023-04-24T15:47:57;10.50;99.90
3380;DHT22;1703;51.964;7.642;2023-04-24T15:50:25;10.50;99.90
3380;DHT22;1703;51.964;7.642;2023-04-24T15:52:52;10.40;99.90
3380;DHT22;1703;51.964;7.642;2023-04-24T15:55:19;10.40;99.90
3380;DHT22;1703;51.964;7.642;2023-04-24T15:57:46;10.30;99.90
3380;DHT22;1703;51.964;7.642;2023-04-24T16:00:13;10.30;99.90
3380;DHT22;1703;51.964;7.642;2023-04-24T16:02:40;10.30;99.90
3380;DHT22;1703;51.964;7.642;2023-04-24T16:05:08;10.40;99.90
3380;DHT22;1703;51.964;7.642;2023-04-24T16:10:04;10.40;99.90
3380;DHT22;1703;51.964;7.642;2023-04-24T16:12:31;10.30;99.90
3380;DHT22;1703;51.964;7.642;2023-04-24T16:14:58;10.40;99.90